sensor_id;sensor_type;location;lat;lon;timestamp;P1;durP1;ratioP1;P2;durP2;ratioP2
10303;SDS011;5197;48.152;8.590;2022-12-18T00:01:15;40.00;;;17.33;;
10303;SDS011;5197;48.152;8.590;2022-12-18T00:03:45;32.20;;;17.20;;
10303;SDS011;5197;48.152;8.590;2022-12-18T00:06:12;40.40;;;18.77;;
10303;SDS011;5197;48.152;8.590;2022-12-18T00:08:40;37.50;;;17.83;;
10303;SDS011;5197;48.152;8.590;2022-12-18T00:11:13;50.27;;;19.90;;
10303;SDS011;5197;48.152;8.590;2022-12-18T00:13:42;70.47;;;29.17;;
10303;SDS011;5197;48.152;8.590;2022-12-18T00:16:11;45.30;;;20.93;;
10303;SDS011;5197;48.152;8.590;2022-12-18T00:18:40;64.07;;;28.27;;
10303;SDS011;5197;48.152;8.590;2022-12-18T00:21:09;48.57;;;23.30;;
10303;SDS011;5197;48.152;8.590;2022-12-18T00:23:38;48.03;;;22.57;;
10303;SDS011;5197;48.152;8.590;2022-12-18T00:26:11;42.63;;;19.83;;
10303;SDS011;5197;48.152;8.590;2022-12-18T00:28:43;48.07;;;21.90;;
10303;SDS011;5197;48.152;8.590;2022-12-18T00:31:12;38.33;;;19.30;;
10303;SDS011;5197;48.152;8.590;2022-12-18T00:33:41;31.97;;;16.87;;
10303;SDS011;5197;48.152;8.590;2022-12-18T00:36:13;31.33;;;17.47;;
10303;SDS011;5197;48.152;8.590;2022-12-18T00:38:44;31.20;;;16.77;;
10303;SDS011;5197;48.152;8.590;2022-12-18T00:41:14;39.70;;;21.13;;
10303;SDS011;5197;48.152;8.590;2022-12-18T00:44:01;32.90;;;17.37;;
10303;SDS011;5197;48.152;8.590;2022-12-18T00:46:30;36.40;;;17.37;;
10303;SDS011;5197;48.152;8.590;2022-12-18T00:48:57;34.43;;;18.40;;
10303;SDS011;5197;48.152;8.590;2022-12-18T00:51:24;33.03;;;16.87;;
10303;SDS011;5197;48.152;8.590;2022-12-18T00:53:52;33.87;;;17.80;;
10303;SDS011;5197;48.152;8.590;2022-12-18T00:56:19;34.50;;;17.43;;
10303;SDS011;5197;48.152;8.590;2022-12-18T00:58:48;37.37;;;19.47;;
10303;SDS011;5197;48.152;8.590;2022-12-18T01:01:16;37.20;;;19.27;;
10303;SDS011;5197;48.152;8.590;2022-12-18T01:03:43;37.53;;;17.40;;
10303;SDS011;5197;48.152;8.590;2022-12-18T01:06:13;33.30;;;16.90;;
10303;SDS011;5197;48.152;8.590;2022-12-18T01:08:41;33.93;;;17.23;;
10303;SDS011;5197;48.152;8.590;2022-12-18T01:11:10;27.73;;;15.43;;
10303;SDS011;5197;48.152;8.590;2022-12-18T01:13:39;31.53;;;14.43;;
10303;SDS011;5197;48.152;8.590;2022-12-18T01:16:07;35.37;;;16.63;;
10303;SDS011;5197;48.152;8.590;2022-12-18T01:18:35;36.00;;;17.40;;
10303;SDS011;5197;48.152;8.590;2022-12-18T01:21:09;33.80;;;16.13;;
10303;SDS011;5197;48.152;8.590;2022-12-18T01:23:38;34.23;;;17.47;;
10303;SDS011;5197;48.152;8.590;2022-12-18T01:26:10;31.90;;;16.20;;
10303;SDS011;5197;48.152;8.590;2022-12-18T01:28:40;32.93;;;16.43;;
10303;SDS011;5197;48.152;8.590;2022-12-18T01:31:14;34.83;;;16.87;;
10303;SDS011;5197;48.152;8.590;2022-12-18T01:33:45;33.63;;;16.50;;
10303;SDS011;5197;48.152;8.590;2022-12-18T01:36:32;36.13;;;16.57;;
10303;SDS011;5197;48.152;8.590;2022-12-18T01:39:01;32.60;;;16.20;;
10303;SDS011;5197;48.152;8.590;2022-12-18T01:41:30;35.47;;;15.50;;
10303;SDS011;5197;48.152;8.590;2022-12-18T01:47:15;43.30;;;16.67;;
10303;SDS011;5197;48.152;8.590;2022-12-18T01:49:57;41.77;;;19.00;;
10303;SDS011;5197;48.152;8.590;2022-12-18T01:52:28;36.07;;;17.10;;
10303;SDS011;5197;48.152;8.590;2022-12-18T01:54:57;39.60;;;20.43;;
10303;SDS011;5197;48.152;8.590;2022-12-18T01:57:26;41.73;;;17.97;;
10303;SDS011;5197;48.152;8.590;2022-12-18T01:59:53;39.40;;;17.00;;
10303;SDS011;5197;48.152;8.590;2022-12-18T02:02:25;36.77;;;16.27;;
10303;SDS011;5197;48.152;8.590;2022-12-18T02:04:55;34.13;;;17.33;;
10303;SDS011;5197;48.152;8.590;2022-12-18T02:10:13;45.73;;;18.40;;
10303;SDS011;5197;48.152;8.590;2022-12-18T02:17:55;41.03;;;19.20;;
10303;SDS011;5197;48.152;8.590;2022-12-18T02:20:32;44.47;;;17.97;;
10303;SDS011;5197;48.152;8.590;2022-12-18T02:23:09;43.43;;;19.10;;
10303;SDS011;5197;48.152;8.590;2022-12-18T02:25:53;36.67;;;15.97;;
10303;SDS011;5197;48.152;8.590;2022-12-18T02:28:31;45.80;;;20.83;;
10303;SDS011;5197;48.152;8.590;2022-12-18T02:31:10;39.90;;;19.80;;
10303;SDS011;5197;48.152;8.590;2022-12-18T02:33:40;46.80;;;21.17;;
10303;SDS011;5197;48.152;8.590;2022-12-18T02:36:10;42.73;;;19.93;;
10303;SDS011;5197;48.152;8.590;2022-12-18T02:38:38;42.30;;;19.60;;
10303;SDS011;5197;48.152;8.590;2022-12-18T02:41:07;39.67;;;18.57;;
10303;SDS011;5197;48.152;8.590;2022-12-18T02:43:34;43.17;;;18.60;;
10303;SDS011;5197;48.152;8.590;2022-12-18T02:46:20;34.43;;;14.60;;
10303;SDS011;5197;48.152;8.590;2022-12-18T02:48:51;42.80;;;18.87;;
10303;SDS011;5197;48.152;8.590;2022-12-18T02:51:27;22.63;;;11.07;;
10303;SDS011;5197;48.152;8.590;2022-12-18T02:54:08;43.30;;;19.73;;
10303;SDS011;5197;48.152;8.590;2022-12-18T02:56:41;43.30;;;19.93;;
10303;SDS011;5197;48.152;8.590;2022-12-18T02:59:17;24.80;;;11.63;;
10303;SDS011;5197;48.152;8.590;2022-12-18T03:01:56;40.97;;;17.87;;
10303;SDS011;5197;48.152;8.590;2022-12-18T03:04:40;43.97;;;18.93;;
10303;SDS011;5197;48.152;8.590;2022-12-18T03:07:15;44.40;;;21.03;;
10303;SDS011;5197;48.152;8.590;2022-12-18T03:09:50;42.27;;;18.67;;
10303;SDS011;5197;48.152;8.590;2022-12-18T03:12:32;42.80;;;18.77;;
10303;SDS011;5197;48.152;8.590;2022-12-18T03:15:04;40.27;;;17.57;;
10303;SDS011;5197;48.152;8.590;2022-12-18T03:17:52;44.83;;;18.47;;
10303;SDS011;5197;48.152;8.590;2022-12-18T03:20:23;37.93;;;17.43;;
10303;SDS011;5197;48.152;8.590;2022-12-18T03:22:56;46.77;;;17.93;;
10303;SDS011;5197;48.152;8.590;2022-12-18T03:25:28;44.00;;;19.97;;
10303;SDS011;5197;48.152;8.590;2022-12-18T03:27:58;44.63;;;17.87;;
10303;SDS011;5197;48.152;8.590;2022-12-18T03:30:29;39.10;;;18.50;;
10303;SDS011;5197;48.152;8.590;2022-12-18T03:33:09;48.03;;;22.63;;
10303;SDS011;5197;48.152;8.590;2022-12-18T03:35:41;44.17;;;19.07;;
10303;SDS011;5197;48.152;8.590;2022-12-18T03:38:10;45.73;;;17.77;;
10303;SDS011;5197;48.152;8.590;2022-12-18T03:46:22;40.27;;;16.73;;
10303;SDS011;5197;48.152;8.590;2022-12-18T03:49:10;49.07;;;20.57;;
10303;SDS011;5197;48.152;8.590;2022-12-18T03:55:00;38.03;;;14.10;;
10303;SDS011;5197;48.152;8.590;2022-12-18T03:57:30;36.83;;;17.43;;
10303;SDS011;5197;48.152;8.590;2022-12-18T04:00:00;35.20;;;15.50;;
10303;SDS011;5197;48.152;8.590;2022-12-18T04:02:39;43.60;;;19.23;;
10303;SDS011;5197;48.152;8.590;2022-12-18T04:05:11;31.93;;;14.23;;
10303;SDS011;5197;48.152;8.590;2022-12-18T04:07:39;44.93;;;19.30;;
10303;SDS011;5197;48.152;8.590;2022-12-18T04:10:07;45.23;;;20.50;;
10303;SDS011;5197;48.152;8.590;2022-12-18T04:12:40;42.53;;;17.50;;
10303;SDS011;5197;48.152;8.590;2022-12-18T04:15:07;35.43;;;17.23;;
10303;SDS011;5197;48.152;8.590;2022-12-18T04:17:36;37.90;;;15.93;;
10303;SDS011;5197;48.152;8.590;2022-12-18T04:20:04;41.13;;;17.07;;
10303;SDS011;5197;48.152;8.590;2022-12-18T04:22:31;40.03;;;16.77;;
10303;SDS011;5197;48.152;8.590;2022-12-18T04:24:58;28.13;;;11.67;;
10303;SDS011;5197;48.152;8.590;2022-12-18T04:27:25;42.33;;;18.70;;
10303;SDS011;5197;48.152;8.590;2022-12-18T04:29:52;43.60;;;19.03;;
10303;SDS011;5197;48.152;8.590;2022-12-18T04:32:19;39.70;;;18.23;;
10303;SDS011;5197;48.152;8.590;2022-12-18T04:34:46;37.33;;;16.07;;
10303;SDS011;5197;48.152;8.590;2022-12-18T04:37:13;28.80;;;15.13;;
10303;SDS011;5197;48.152;8.590;2022-12-18T04:39:40;42.83;;;17.90;;
10303;SDS011;5197;48.152;8.590;2022-12-18T04:42:07;41.33;;;17.17;;
10303;SDS011;5197;48.152;8.590;2022-12-18T04:44:34;33.57;;;17.20;;
10303;SDS011;5197;48.152;8.590;2022-12-18T04:47:01;37.00;;;14.37;;
10303;SDS011;5197;48.152;8.590;2022-12-18T04:49:28;44.30;;;18.47;;
10303;SDS011;5197;48.152;8.590;2022-12-18T04:51:54;30.43;;;13.63;;
10303;SDS011;5197;48.152;8.590;2022-12-18T04:54:21;41.03;;;19.57;;
10303;SDS011;5197;48.152;8.590;2022-12-18T04:56:48;33.70;;;16.13;;
10303;SDS011;5197;48.152;8.590;2022-12-18T04:59:15;37.73;;;16.57;;
10303;SDS011;5197;48.152;8.590;2022-12-18T05:01:42;38.40;;;18.07;;
10303;SDS011;5197;48.152;8.590;2022-12-18T05:04:09;38.67;;;17.60;;
10303;SDS011;5197;48.152;8.590;2022-12-18T05:06:36;42.90;;;19.50;;
10303;SDS011;5197;48.152;8.590;2022-12-18T05:09:03;38.30;;;15.77;;
10303;SDS011;5197;48.152;8.590;2022-12-18T05:11:31;42.00;;;19.07;;
10303;SDS011;5197;48.152;8.590;2022-12-18T05:13:58;37.73;;;19.27;;
10303;SDS011;5197;48.152;8.590;2022-12-18T05:16:25;40.87;;;19.00;;
10303;SDS011;5197;48.152;8.590;2022-12-18T05:18:52;40.20;;;18.03;;
10303;SDS011;5197;48.152;8.590;2022-12-18T05:21:19;36.60;;;16.07;;
10303;SDS011;5197;48.152;8.590;2022-12-18T05:23:47;34.43;;;14.23;;
10303;SDS011;5197;48.152;8.590;2022-12-18T05:26:15;35.13;;;16.50;;
10303;SDS011;5197;48.152;8.590;2022-12-18T05:28:44;26.53;;;12.20;;
10303;SDS011;5197;48.152;8.590;2022-12-18T05:31:12;36.47;;;17.73;;
10303;SDS011;5197;48.152;8.590;2022-12-18T05:33:39;24.37;;;11.93;;
10303;SDS011;5197;48.152;8.590;2022-12-18T05:36:07;47.83;;;19.07;;
10303;SDS011;5197;48.152;8.590;2022-12-18T05:38:36;21.83;;;9.23;;
10303;SDS011;5197;48.152;8.590;2022-12-18T05:41:04;36.57;;;15.60;;
10303;SDS011;5197;48.152;8.590;2022-12-18T05:43:33;39.50;;;18.03;;
10303;SDS011;5197;48.152;8.590;2022-12-18T05:46:05;38.70;;;18.17;;
10303;SDS011;5197;48.152;8.590;2022-12-18T05:48:41;45.10;;;18.00;;
10303;SDS011;5197;48.152;8.590;2022-12-18T05:51:10;41.47;;;16.17;;
10303;SDS011;5197;48.152;8.590;2022-12-18T05:53:38;40.37;;;17.27;;
10303;SDS011;5197;48.152;8.590;2022-12-18T05:56:08;37.23;;;15.97;;
10303;SDS011;5197;48.152;8.590;2022-12-18T05:58:36;41.77;;;19.13;;
10303;SDS011;5197;48.152;8.590;2022-12-18T06:03:36;35.20;;;16.17;;
10303;SDS011;5197;48.152;8.590;2022-12-18T06:06:03;41.20;;;17.40;;
10303;SDS011;5197;48.152;8.590;2022-12-18T06:08:30;27.60;;;12.30;;
10303;SDS011;5197;48.152;8.590;2022-12-18T06:10:57;28.23;;;12.73;;
10303;SDS011;5197;48.152;8.590;2022-12-18T06:13:24;42.60;;;16.63;;
10303;SDS011;5197;48.152;8.590;2022-12-18T06:15:51;41.40;;;17.67;;
10303;SDS011;5197;48.152;8.590;2022-12-18T06:18:18;36.13;;;17.53;;
10303;SDS011;5197;48.152;8.590;2022-12-18T06:20:53;38.67;;;17.10;;
10303;SDS011;5197;48.152;8.590;2022-12-18T06:23:22;14.03;;;7.20;;
10303;SDS011;5197;48.152;8.590;2022-12-18T06:25:49;32.60;;;13.77;;
10303;SDS011;5197;48.152;8.590;2022-12-18T06:28:16;36.40;;;14.90;;
10303;SDS011;5197;48.152;8.590;2022-12-18T06:30:44;41.97;;;19.83;;
10303;SDS011;5197;48.152;8.590;2022-12-18T06:33:14;29.03;;;13.27;;
10303;SDS011;5197;48.152;8.590;2022-12-18T06:35:41;55.80;;;22.20;;
10303;SDS011;5197;48.152;8.590;2022-12-18T06:38:09;32.13;;;15.10;;
10303;SDS011;5197;48.152;8.590;2022-12-18T06:40:36;41.20;;;17.30;;
10303;SDS011;5197;48.152;8.590;2022-12-18T06:43:05;42.50;;;18.30;;
10303;SDS011;5197;48.152;8.590;2022-12-18T06:45:32;44.33;;;18.63;;
10303;SDS011;5197;48.152;8.590;2022-12-18T06:47:59;45.90;;;19.83;;
10303;SDS011;5197;48.152;8.590;2022-12-18T06:50:27;40.93;;;16.77;;
10303;SDS011;5197;48.152;8.590;2022-12-18T06:52:54;42.50;;;16.70;;
10303;SDS011;5197;48.152;8.590;2022-12-18T06:55:21;38.00;;;16.03;;
10303;SDS011;5197;48.152;8.590;2022-12-18T06:57:48;28.00;;;11.80;;
10303;SDS011;5197;48.152;8.590;2022-12-18T07:00:15;28.07;;;11.90;;
10303;SDS011;5197;48.152;8.590;2022-12-18T07:02:45;43.33;;;20.47;;
10303;SDS011;5197;48.152;8.590;2022-12-18T07:05:12;46.87;;;19.33;;
10303;SDS011;5197;48.152;8.590;2022-12-18T07:07:39;37.13;;;16.37;;
10303;SDS011;5197;48.152;8.590;2022-12-18T07:10:06;51.70;;;22.70;;
10303;SDS011;5197;48.152;8.590;2022-12-18T07:12:33;32.13;;;15.37;;
10303;SDS011;5197;48.152;8.590;2022-12-18T07:15:01;35.47;;;13.53;;
10303;SDS011;5197;48.152;8.590;2022-12-18T07:17:28;27.10;;;13.70;;
10303;SDS011;5197;48.152;8.590;2022-12-18T07:19:55;40.00;;;18.63;;
10303;SDS011;5197;48.152;8.590;2022-12-18T07:22:22;41.10;;;18.00;;
10303;SDS011;5197;48.152;8.590;2022-12-18T07:24:51;50.03;;;20.50;;
10303;SDS011;5197;48.152;8.590;2022-12-18T07:27:18;32.80;;;14.43;;
10303;SDS011;5197;48.152;8.590;2022-12-18T07:29:46;32.13;;;13.17;;
10303;SDS011;5197;48.152;8.590;2022-12-18T07:32:12;28.40;;;12.97;;
10303;SDS011;5197;48.152;8.590;2022-12-18T07:34:40;33.73;;;12.10;;
10303;SDS011;5197;48.152;8.590;2022-12-18T07:37:07;36.27;;;15.43;;
10303;SDS011;5197;48.152;8.590;2022-12-18T07:39:34;46.87;;;20.73;;
10303;SDS011;5197;48.152;8.590;2022-12-18T07:42:01;32.63;;;13.00;;
10303;SDS011;5197;48.152;8.590;2022-12-18T07:44:47;43.77;;;20.13;;
10303;SDS011;5197;48.152;8.590;2022-12-18T07:47:14;47.97;;;18.13;;
10303;SDS011;5197;48.152;8.590;2022-12-18T07:49:41;45.70;;;20.30;;
10303;SDS011;5197;48.152;8.590;2022-12-18T07:52:08;52.27;;;19.40;;
10303;SDS011;5197;48.152;8.590;2022-12-18T07:54:35;45.23;;;18.73;;
10303;SDS011;5197;48.152;8.590;2022-12-18T07:57:02;49.03;;;22.67;;
10303;SDS011;5197;48.152;8.590;2022-12-18T07:59:41;37.73;;;15.33;;
10303;SDS011;5197;48.152;8.590;2022-12-18T08:02:09;35.37;;;15.80;;
10303;SDS011;5197;48.152;8.590;2022-12-18T08:04:37;18.13;;;9.17;;
10303;SDS011;5197;48.152;8.590;2022-12-18T08:07:04;22.10;;;10.90;;
10303;SDS011;5197;48.152;8.590;2022-12-18T08:09:31;46.50;;;18.37;;
10303;SDS011;5197;48.152;8.590;2022-12-18T08:12:01;42.77;;;18.33;;
10303;SDS011;5197;48.152;8.590;2022-12-18T08:14:28;35.93;;;14.87;;
10303;SDS011;5197;48.152;8.590;2022-12-18T08:16:55;38.47;;;13.47;;
10303;SDS011;5197;48.152;8.590;2022-12-18T08:19:23;38.53;;;15.90;;
10303;SDS011;5197;48.152;8.590;2022-12-18T08:21:50;19.70;;;9.17;;
10303;SDS011;5197;48.152;8.590;2022-12-18T08:24:17;46.40;;;18.23;;
10303;SDS011;5197;48.152;8.590;2022-12-18T08:26:44;48.77;;;20.40;;
10303;SDS011;5197;48.152;8.590;2022-12-18T08:29:30;36.93;;;17.77;;
10303;SDS011;5197;48.152;8.590;2022-12-18T08:31:58;39.53;;;19.17;;
10303;SDS011;5197;48.152;8.590;2022-12-18T08:34:25;21.53;;;9.97;;
10303;SDS011;5197;48.152;8.590;2022-12-18T08:36:52;35.70;;;12.67;;
10303;SDS011;5197;48.152;8.590;2022-12-18T08:39:19;45.90;;;22.10;;
10303;SDS011;5197;48.152;8.590;2022-12-18T08:41:46;44.27;;;19.87;;
10303;SDS011;5197;48.152;8.590;2022-12-18T08:44:35;53.27;;;23.73;;
10303;SDS011;5197;48.152;8.590;2022-12-18T08:47:06;42.00;;;18.00;;
10303;SDS011;5197;48.152;8.590;2022-12-18T08:49:34;44.43;;;18.23;;
10303;SDS011;5197;48.152;8.590;2022-12-18T08:52:01;45.40;;;20.10;;
10303;SDS011;5197;48.152;8.590;2022-12-18T08:54:29;39.87;;;16.40;;
10303;SDS011;5197;48.152;8.590;2022-12-18T08:56:56;50.80;;;20.90;;
10303;SDS011;5197;48.152;8.590;2022-12-18T08:59:25;52.73;;;23.80;;
10303;SDS011;5197;48.152;8.590;2022-12-18T09:01:55;38.87;;;16.97;;
10303;SDS011;5197;48.152;8.590;2022-12-18T09:04:22;39.37;;;17.17;;
10303;SDS011;5197;48.152;8.590;2022-12-18T09:06:49;37.83;;;16.30;;
10303;SDS011;5197;48.152;8.590;2022-12-18T09:09:16;38.27;;;16.77;;
10303;SDS011;5197;48.152;8.590;2022-12-18T09:11:44;40.70;;;19.23;;
10303;SDS011;5197;48.152;8.590;2022-12-18T09:14:11;45.40;;;20.67;;
10303;SDS011;5197;48.152;8.590;2022-12-18T09:16:38;47.53;;;20.30;;
10303;SDS011;5197;48.152;8.590;2022-12-18T09:19:06;37.97;;;17.13;;
10303;SDS011;5197;48.152;8.590;2022-12-18T09:21:34;41.23;;;20.10;;
10303;SDS011;5197;48.152;8.590;2022-12-18T09:24:03;48.50;;;24.50;;
10303;SDS011;5197;48.152;8.590;2022-12-18T09:26:34;33.90;;;16.47;;
10303;SDS011;5197;48.152;8.590;2022-12-18T09:29:04;42.93;;;19.50;;
10303;SDS011;5197;48.152;8.590;2022-12-18T09:31:33;35.80;;;14.40;;
10303;SDS011;5197;48.152;8.590;2022-12-18T09:34:02;34.30;;;15.70;;
10303;SDS011;5197;48.152;8.590;2022-12-18T09:36:29;36.50;;;15.33;;
10303;SDS011;5197;48.152;8.590;2022-12-18T09:38:56;42.57;;;19.37;;
10303;SDS011;5197;48.152;8.590;2022-12-18T09:41:31;39.50;;;18.73;;
10303;SDS011;5197;48.152;8.590;2022-12-18T09:44:01;48.93;;;20.33;;
10303;SDS011;5197;48.152;8.590;2022-12-18T09:46:40;46.53;;;19.87;;
10303;SDS011;5197;48.152;8.590;2022-12-18T09:49:18;37.20;;;20.27;;
10303;SDS011;5197;48.152;8.590;2022-12-18T09:54:23;49.47;;;20.30;;
10303;SDS011;5197;48.152;8.590;2022-12-18T09:56:56;43.73;;;19.43;;
10303;SDS011;5197;48.152;8.590;2022-12-18T09:59:27;34.70;;;16.23;;
10303;SDS011;5197;48.152;8.590;2022-12-18T10:02:10;25.27;;;12.07;;
10303;SDS011;5197;48.152;8.590;2022-12-18T10:04:55;41.80;;;18.60;;
10303;SDS011;5197;48.152;8.590;2022-12-18T10:10:27;41.40;;;20.70;;
10303;SDS011;5197;48.152;8.590;2022-12-18T10:13:09;46.87;;;20.53;;
10303;SDS011;5197;48.152;8.590;2022-12-18T10:16:50;44.27;;;19.60;;
10303;SDS011;5197;48.152;8.590;2022-12-18T10:19:10;50.10;;;21.50;;
10303;SDS011;5197;48.152;8.590;2022-12-18T10:27:14;30.80;;;16.73;;
10303;SDS011;5197;48.152;8.590;2022-12-18T10:29:43;36.80;;;17.67;;
10303;SDS011;5197;48.152;8.590;2022-12-18T10:32:15;34.67;;;16.00;;
10303;SDS011;5197;48.152;8.590;2022-12-18T10:34:48;38.90;;;18.60;;
10303;SDS011;5197;48.152;8.590;2022-12-18T10:37:25;37.20;;;20.17;;
10303;SDS011;5197;48.152;8.590;2022-12-18T10:42:47;34.73;;;16.73;;
10303;SDS011;5197;48.152;8.590;2022-12-18T10:45:37;31.23;;;14.57;;
10303;SDS011;5197;48.152;8.590;2022-12-18T10:48:17;36.77;;;19.77;;
10303;SDS011;5197;48.152;8.590;2022-12-18T10:50:46;23.93;;;12.40;;
10303;SDS011;5197;48.152;8.590;2022-12-18T10:53:36;41.07;;;20.57;;
10303;SDS011;5197;48.152;8.590;2022-12-18T10:56:04;36.80;;;17.73;;
10303;SDS011;5197;48.152;8.590;2022-12-18T10:58:37;33.97;;;16.90;;
10303;SDS011;5197;48.152;8.590;2022-12-18T11:06:28;39.20;;;16.47;;
10303;SDS011;5197;48.152;8.590;2022-12-18T11:11:48;41.60;;;20.63;;
10303;SDS011;5197;48.152;8.590;2022-12-18T11:14:24;41.73;;;19.57;;
10303;SDS011;5197;48.152;8.590;2022-12-18T11:16:55;40.03;;;20.37;;
10303;SDS011;5197;48.152;8.590;2022-12-18T11:19:44;34.87;;;15.37;;
10303;SDS011;5197;48.152;8.590;2022-12-18T11:22:23;38.70;;;21.07;;
10303;SDS011;5197;48.152;8.590;2022-12-18T11:27:53;29.67;;;13.90;;
10303;SDS011;5197;48.152;8.590;2022-12-18T11:30:24;44.57;;;22.43;;
10303;SDS011;5197;48.152;8.590;2022-12-18T11:35:45;41.97;;;22.03;;
10303;SDS011;5197;48.152;8.590;2022-12-18T11:38:20;34.97;;;16.00;;
10303;SDS011;5197;48.152;8.590;2022-12-18T11:40:59;41.07;;;20.67;;
10303;SDS011;5197;48.152;8.590;2022-12-18T11:43:42;41.73;;;21.63;;
10303;SDS011;5197;48.152;8.590;2022-12-18T11:46:37;41.60;;;21.03;;
10303;SDS011;5197;48.152;8.590;2022-12-18T11:49:33;41.50;;;21.03;;
10303;SDS011;5197;48.152;8.590;2022-12-18T11:52:08;39.27;;;21.03;;
10303;SDS011;5197;48.152;8.590;2022-12-18T11:54:36;23.63;;;11.63;;
10303;SDS011;5197;48.152;8.590;2022-12-18T11:59:59;43.97;;;22.73;;
10303;SDS011;5197;48.152;8.590;2022-12-18T12:06:20;44.57;;;21.67;;
10303;SDS011;5197;48.152;8.590;2022-12-18T12:39:16;41.33;;;24.27;;
10303;SDS011;5197;48.152;8.590;2022-12-18T12:41:47;42.87;;;21.77;;
10303;SDS011;5197;48.152;8.590;2022-12-18T12:44:43;43.33;;;22.50;;
10303;SDS011;5197;48.152;8.590;2022-12-18T12:47:38;44.67;;;22.87;;
10303;SDS011;5197;48.152;8.590;2022-12-18T12:50:15;40.03;;;19.70;;
10303;SDS011;5197;48.152;8.590;2022-12-18T12:52:52;40.10;;;21.23;;
10303;SDS011;5197;48.152;8.590;2022-12-18T12:55:22;40.00;;;20.20;;
10303;SDS011;5197;48.152;8.590;2022-12-18T13:00:44;44.30;;;23.70;;
10303;SDS011;5197;48.152;8.590;2022-12-18T13:06:19;45.57;;;24.90;;
10303;SDS011;5197;48.152;8.590;2022-12-18T13:09:32;42.33;;;21.23;;
10303;SDS011;5197;48.152;8.590;2022-12-18T13:12:04;46.60;;;23.53;;
10303;SDS011;5197;48.152;8.590;2022-12-18T13:15:13;41.67;;;21.90;;
10303;SDS011;5197;48.152;8.590;2022-12-18T13:17:48;36.37;;;16.10;;
10303;SDS011;5197;48.152;8.590;2022-12-18T13:20:32;38.27;;;18.17;;
10303;SDS011;5197;48.152;8.590;2022-12-18T13:23:45;41.40;;;20.50;;
10303;SDS011;5197;48.152;8.590;2022-12-18T13:31:13;34.87;;;17.83;;
10303;SDS011;5197;48.152;8.590;2022-12-18T13:33:43;34.03;;;16.97;;
10303;SDS011;5197;48.152;8.590;2022-12-18T13:36:32;44.97;;;24.83;;
10303;SDS011;5197;48.152;8.590;2022-12-18T13:41:38;40.30;;;21.57;;
10303;SDS011;5197;48.152;8.590;2022-12-18T13:44:12;40.00;;;19.87;;
10303;SDS011;5197;48.152;8.590;2022-12-18T13:46:52;42.87;;;21.53;;
10303;SDS011;5197;48.152;8.590;2022-12-18T13:49:35;42.37;;;20.73;;
10303;SDS011;5197;48.152;8.590;2022-12-18T13:52:25;49.67;;;25.00;;
10303;SDS011;5197;48.152;8.590;2022-12-18T13:55:00;41.27;;;22.37;;
10303;SDS011;5197;48.152;8.590;2022-12-18T13:57:32;51.13;;;27.70;;
10303;SDS011;5197;48.152;8.590;2022-12-18T14:02:56;48.50;;;24.43;;
10303;SDS011;5197;48.152;8.590;2022-12-18T14:08:10;47.23;;;23.70;;
10303;SDS011;5197;48.152;8.590;2022-12-18T14:10:40;42.67;;;22.50;;
10303;SDS011;5197;48.152;8.590;2022-12-18T14:13:20;44.10;;;23.27;;
10303;SDS011;5197;48.152;8.590;2022-12-18T14:16:00;43.23;;;22.97;;
10303;SDS011;5197;48.152;8.590;2022-12-18T14:21:20;50.13;;;25.73;;
10303;SDS011;5197;48.152;8.590;2022-12-18T14:24:06;47.83;;;24.47;;
10303;SDS011;5197;48.152;8.590;2022-12-18T14:26:45;46.60;;;23.13;;
10303;SDS011;5197;48.152;8.590;2022-12-18T14:34:44;50.27;;;23.73;;
10303;SDS011;5197;48.152;8.590;2022-12-18T14:37:12;46.53;;;24.87;;
10303;SDS011;5197;48.152;8.590;2022-12-18T14:39:40;46.37;;;23.70;;
10303;SDS011;5197;48.152;8.590;2022-12-18T14:42:18;44.80;;;23.83;;
10303;SDS011;5197;48.152;8.590;2022-12-18T14:44:45;46.20;;;22.30;;
10303;SDS011;5197;48.152;8.590;2022-12-18T14:47:32;49.70;;;26.50;;
10303;SDS011;5197;48.152;8.590;2022-12-18T14:49:59;50.07;;;22.20;;
10303;SDS011;5197;48.152;8.590;2022-12-18T14:52:27;52.07;;;25.67;;
10303;SDS011;5197;48.152;8.590;2022-12-18T14:54:57;55.27;;;25.57;;
10303;SDS011;5197;48.152;8.590;2022-12-18T14:57:25;56.47;;;29.27;;
10303;SDS011;5197;48.152;8.590;2022-12-18T15:00:05;45.97;;;22.73;;
10303;SDS011;5197;48.152;8.590;2022-12-18T15:02:34;53.27;;;24.60;;
10303;SDS011;5197;48.152;8.590;2022-12-18T15:05:04;54.80;;;25.50;;
10303;SDS011;5197;48.152;8.590;2022-12-18T15:07:45;49.33;;;22.90;;
10303;SDS011;5197;48.152;8.590;2022-12-18T15:10:15;49.40;;;27.10;;
10303;SDS011;5197;48.152;8.590;2022-12-18T15:23:16;51.23;;;24.57;;
10303;SDS011;5197;48.152;8.590;2022-12-18T15:28:34;49.40;;;24.77;;
10303;SDS011;5197;48.152;8.590;2022-12-18T15:33:44;52.87;;;24.90;;
10303;SDS011;5197;48.152;8.590;2022-12-18T15:36:27;42.97;;;23.47;;
10303;SDS011;5197;48.152;8.590;2022-12-18T15:38:54;51.90;;;26.53;;
10303;SDS011;5197;48.152;8.590;2022-12-18T15:41:31;45.03;;;23.37;;
10303;SDS011;5197;48.152;8.590;2022-12-18T15:44:01;49.87;;;24.53;;
10303;SDS011;5197;48.152;8.590;2022-12-18T15:46:30;41.83;;;20.40;;
10303;SDS011;5197;48.152;8.590;2022-12-18T15:48:58;51.80;;;26.37;;
10303;SDS011;5197;48.152;8.590;2022-12-18T15:53:58;55.50;;;27.03;;
10303;SDS011;5197;48.152;8.590;2022-12-18T15:56:28;55.07;;;26.77;;
10303;SDS011;5197;48.152;8.590;2022-12-18T15:59:14;47.07;;;21.93;;
10303;SDS011;5197;48.152;8.590;2022-12-18T16:01:44;47.03;;;22.63;;
10303;SDS011;5197;48.152;8.590;2022-12-18T16:04:14;45.73;;;23.23;;
10303;SDS011;5197;48.152;8.590;2022-12-18T16:06:43;56.77;;;25.17;;
10303;SDS011;5197;48.152;8.590;2022-12-18T16:09:30;49.43;;;24.73;;
10303;SDS011;5197;48.152;8.590;2022-12-18T16:11:57;52.87;;;25.40;;
10303;SDS011;5197;48.152;8.590;2022-12-18T16:14:26;40.60;;;20.23;;
10303;SDS011;5197;48.152;8.590;2022-12-18T16:17:05;54.57;;;25.67;;
10303;SDS011;5197;48.152;8.590;2022-12-18T16:19:35;52.83;;;23.47;;
10303;SDS011;5197;48.152;8.590;2022-12-18T16:22:02;53.57;;;25.43;;
10303;SDS011;5197;48.152;8.590;2022-12-18T16:24:30;54.93;;;26.53;;
10303;SDS011;5197;48.152;8.590;2022-12-18T16:26:59;47.47;;;22.53;;
10303;SDS011;5197;48.152;8.590;2022-12-18T16:29:28;48.93;;;24.60;;
10303;SDS011;5197;48.152;8.590;2022-12-18T16:31:59;49.43;;;25.10;;
10303;SDS011;5197;48.152;8.590;2022-12-18T16:34:27;54.77;;;24.13;;
10303;SDS011;5197;48.152;8.590;2022-12-18T16:37:02;54.50;;;25.10;;
10303;SDS011;5197;48.152;8.590;2022-12-18T16:39:32;57.17;;;26.03;;
10303;SDS011;5197;48.152;8.590;2022-12-18T16:42:01;55.60;;;25.37;;
10303;SDS011;5197;48.152;8.590;2022-12-18T16:44:32;53.00;;;26.13;;
10303;SDS011;5197;48.152;8.590;2022-12-18T16:47:00;58.83;;;26.80;;
10303;SDS011;5197;48.152;8.590;2022-12-18T16:49:29;52.80;;;25.33;;
10303;SDS011;5197;48.152;8.590;2022-12-18T16:51:56;49.33;;;22.57;;
10303;SDS011;5197;48.152;8.590;2022-12-18T16:54:23;54.17;;;24.37;;
10303;SDS011;5197;48.152;8.590;2022-12-18T16:56:50;70.27;;;32.93;;
10303;SDS011;5197;48.152;8.590;2022-12-18T16:59:17;56.23;;;27.47;;
10303;SDS011;5197;48.152;8.590;2022-12-18T17:01:45;53.63;;;24.70;;
10303;SDS011;5197;48.152;8.590;2022-12-18T17:04:13;45.83;;;23.23;;
10303;SDS011;5197;48.152;8.590;2022-12-18T17:06:42;56.83;;;26.80;;
10303;SDS011;5197;48.152;8.590;2022-12-18T17:09:14;57.73;;;28.20;;
10303;SDS011;5197;48.152;8.590;2022-12-18T17:11:42;61.97;;;27.83;;
10303;SDS011;5197;48.152;8.590;2022-12-18T17:14:10;60.17;;;26.93;;
10303;SDS011;5197;48.152;8.590;2022-12-18T17:16:40;55.33;;;27.07;;